Cedar Creek, TX

3:05 PM CST on December 27, 2014 (GMT -0600)
San Marcos Municipal | Change Station
CLOSE
Current Station
Airport
Location: San Marcos,
Elevation: 597 ft
Nearby Weather Stations

Elev 597 ft 29.90 °N, 97.87 °W | Updated 18 minutes ago

Overcast
Overcast
46 °F
Feels Like 38 °F
N
23
Wind Variable Wind from North
Gusts 30 mph

Today
High -- | Low -- °F
--% Chance of Precip.
Yesterday
High -- | Low -- °F
Precip. -- in
7:24 AM 5:37 PM
Waxing Crescent, 40% visible
Pressure 30.12 in
Visibility 7.0 miles
Clouds Overcast 2700 ft
Windchill 38 °F
Dew Point 39 °F
Humidity 76%
Rainfall 0.00 in
Snow Depth Not available.
UV 1 out of 12
Pollen 8.80 out of 12
Air Quality Not available.
Flu Activity Not available.
METAR KHYI 272047Z 35020G26KT 7SM OVC027 08/04 A3012

More Conditions Fewer Conditions

Pressure 30.12 in
Visibility 7.0 miles
Clouds Overcast 2700 ft
Windchill 38 °F
Dew Point 39 °F
Humidity 76%
Rainfall 0.00 in
Snow Depth Not available.
UV 1 out of 12
Pollen 8.80 out of 12
Air Quality Not available.
Flu Activity Not available.
METAR KHYI 272047Z 35020G26KT 7SM OVC027 08/04 A3012

More Conditions Fewer Conditions

10-Day Weather Forecast

Almanac

Astronomy

Dec. 27, 2014 Rise Set
Actual Time
Civil Twilight
Nautical Twilight
Astronomical Twilight
Moon
Length of Visible Light
Length of Day
Tomorrow will be .
, % of the Moon is Illuminated

Today's Extremes

State Highs State Lows

Community

WunderPhotos

Upload Photos

1,781,065 photos uploaded!

WunderBlogs® & News

Nearby

Air Quality

  Air Quality AQ Index Pollutant
Not available.

Snow Depth

Station Depth Elevation

Earthquake Activity

City Distance Mag. Time & Date
Minimum magnitude displayed is 2.5.

Coastal Water Temperatures

Place Temperature

Nearby Weather Stations